Other Surface Observations
Issued by NWS Missoula, MT

Home | Current Version | Previous Version | Text Only | Print | Product List | Glossary On
Versions: 1 2 3 4 5 6 7 8 9 10 11 12 13 14 15 16 17 18 19 20 21 22 23 24 25 26 27 28 29 30 31 32 33 34 35 36 37 38 39 40 41 42 43 44 45 46 47 48 49 50
000
SXUS55 KMSO 261913
OSOMSO
MONTANA AWOS SUMMARY
NATIONAL WEATHER SERVICE MISSOULA MT
113 PM MDT WED NOV 26 2014

Montana AWOS Reports

LAUREL      |K6S8 261855Z AUTO 00000KT 1/2SM M02/M05 A3015 RMK AO1 T10161049
PLAINS      |KS34 261855Z AUTO 00000KT 3/4SM 01/M02 A3016 RMK AO1 T00061016
SCOBEY      |K9S2 261855Z AUTO 05006KT 25SM M10/M16 A3028 RMK AO1 T10991160
MALTA       |KM75 261855Z AUTO 00000KT 25SM M02/M06 A3021 RMK AO1 T10161055




USA.gov is the U.S. government's official web portal to all federal, state and local government web resources and services.